To NAV CANADA Home Page Login to a new session Search on AWWS site Disclaimer Vers la page française équivalente Tips FAQ What's new on the site To the Forecasts and Observations / NOTAM section To "File a Flight Plan" website Publications and other links Update of the User's profile FIC Telephone Numbers My Weather Data Folder Route Weather Data Regional Weather Data Local Weather Data To the Forecasts and Observations / NOTAM section
Request Generated 09/16/2021 at 15:20:23 UTC . Weather information available at that time is displayed.

METAR/TAF

OTTAWA/MACDONALD-CARTIER INTL/ON    

METAR CYOW 161500Z 11005KT 090V180 15SM FEW160 FEW200 SCT250 20/13 A3026 RMK AC1CI2CI2 AC TR SLP251 DENSITY ALT 700FT=
METAR CYOW 161400Z 00000KT 15SM FEW020 FEW180 SCT200 BKN250 18/14 A3026 RMK CU1AC1CI2CI2 CU TR SLP250 DENSITY ALT 500FT=
METAR CYOW 161300Z 10003KT 15SM FEW020 FEW200 SCT250 15/13 A3026 RMK CU1CI1CI3 CU TR SLP249=

TAF CYOW 161442Z 1615/1712 VRB03KT P6SM FEW020 SCT250
FM161800 11008KT P6SM FEW040 PROB30 1707/1712 1/2SM FG VV002
RMK NXT FCST BY 161800Z=

OTTAWA/GATINEAU/QC    

METAR CYND 161500Z VRB02KT 15SM SCT220 18/13 A3026 RMK CI3 SLP250 DENSITY ALT 300FT=
METAR CYND 161400Z 08003KT 040V130 15SM FEW003 SCT200 16/13 A3027 RMK SF1CI4 SF TR SLP252=
METAR CYND 161300Z 08004KT 15SM FEW003 SCT200 14/12 A3026 RMK SF1CI4 SLP249=

TAF CYND 161239Z 1613/1701 VRB03KT P6SM SCT003 BKN080 BKN240 PROB30
1613/1614 1SM BR BKN003
FM161700 12007KT P6SM FEW220
RMK NXT FCST BY 161800Z=

MONTREAL/PIERRE-ELLIOTT-TRUDEAU INTL/QC    

METAR CYUL 161500Z 16005KT 130V200 30SM FEW032 FEW180 BKN230 19/11 A3027 RMK CF1AC2CI5 CF TR SLP253 DENSITY ALT 300FT=
METAR CYUL 161400Z VRB02KT 30SM FEW025 SCT250 18/13 A3028 RMK CU2CI2 SLP255 DENSITY ALT 200FT=
METAR CYUL 161300Z 00000KT 30SM FEW180 BKN250 16/13 A3027 RMK AC1CI5 AC TR SLP252=

TAF CYUL 161442Z 1615/1712 VRB03KT P6SM FEW025 SCT250
FM162000 11008KT P6SM SKC
BECMG 1700/1702 06005KT
RMK NXT FCST BY 161800Z=

MONTREAL INTL (MIRABEL)/QC    

METAR CYMX 161500Z VRB02KT 30SM SCT240 20/13 A3028 RMK CI4 SLP255 DENSITY ALT 500FT=
METAR CYMX 161400Z 00000KT 30SM BKN240 18/13 A3028 RMK CI5 SLP256 DENSITY ALT 300FT=
METAR CYMX 161300Z VRB02KT 30SM BKN240 15/12 A3027 RMK CI6 SLP252=

TAF CYMX 161138Z 1612/1712 VRB03KT P6SM FEW035 FEW230 PROB30
1707/1712 1/2SM FG SCT002
RMK NXT FCST BY 161800Z=

KINGSTON/ON    

METAR CYGK 161500Z 16006KT 15SM FEW025 FEW250 20/16 A3026 RMK CU2CI1 CI TR SLP250 DENSITY ALT 600FT=
METAR CYGK 161400Z 13006KT 15SM FEW010 FEW250 20/16 A3025 RMK CF1CI1 CF TR CI TR SLP247 DENSITY ALT 600FT=
METAR CYGK 161300Z VRB02KT 15SM VCFG FEW001 FEW250 17/16 A3024 RMK SF1CI1 SF TR FG BANKS S-SW SLP244=

TAF CYGK 161339Z 1614/1702 VRB03KT P6SM FEW001
FM161600 15008KT P6SM SKC
BECMG 1621/1623 06008KT
RMK NXT FCST BY 162000Z=

PETAWAWA/ON    

METAR CYWA 161500Z AUTO 13005KT 9SM FEW002 15/14 A3024 RMK SLP244=
SPECI CYWA 161455Z AUTO 12005KT 9SM FEW003 15/14 A3024 RMK SLP244=
SPECI CYWA 161452Z AUTO 11005KT 9SM BKN003 15/14 A3024 RMK SLP244=
SPECI CYWA 161441Z AUTO 13004KT 080V150 6SM OVC002 13/13 A3024 RMK SLP245=
SPECI CYWA 161433Z AUTO 12004KT 090V150 3SM OVC001 13/13 A3024 RMK SLP245=
SPECI CYWA 161426Z AUTO 10004KT 090V160 1SM OVC001 13/13 A3024 RMK SLP246=
SPECI CYWA 161413Z AUTO 11003KT 050V160 5/8SM VV001 13/13 A3024 RMK SLP246=
METAR CYWA 161400Z AUTO 10003KT 060V140 3/4SM VV001 13/13 A3025 RMK SLP246=
SPECI CYWA 161358Z AUTO 09005KT 060V150 3/4SM VV001 13/13 A3024 RMK SLP246=
SPECI CYWA 161350Z AUTO 12004KT 080V160 1SM VV001 13/13 A3024 RMK SLP245=
SPECI CYWA 161339Z AUTO 14004KT 110V180 3/4SM VV001 13/13 A3024 RMK SLP245=
SPECI CYWA 161321Z AUTO 15002KT 1/4SM VV001 13/13 A3024 RMK SLP245=
METAR CYWA 161300Z AUTO 17002KT 1/8SM VV001 12/12 A3025 RMK SLP245=

TAF AMD CYWA 161412Z 1614/1712 VRB03KT 1/2SM FG VV001
BECMG 1614/1616 P6SM NSW SKC
FM161700 VRB03KT P6SM SCT040 TEMPO 1617/1701 BKN040
FM170700 VRB03KT P6SM SKC PROB40 1707/1712 2SM BR
RMK FCST BASED ON AUTO OBS. NXT FCST BY 161800Z=
Your time UTC time
Weather data provided by Environment Canada and NAV CANADA